Time;durP1;ratioP1;P1;durP2;ratioP2;P2;SDS_P1;SDS_P2;PMS_P1;PMS_P2;Temp;Humidity;BMP_temperature;BMP_pressure;BME280_temperature;BME280_humidity;BME280_pressure;Samples;Min_cycle;Max_cycle;Signal;HPM_P1;HPM_P2
2021/12/07 00:18:44;;;;;;;34.33;22.07;;;77.50;2227.20;;;;;;4890206;24;20059;-84
2021/12/07 00:21:14;;;;;;;32.87;20.20;;;77.50;2227.20;;;;;;4827466;29;20049;-83
2021/12/07 00:23:40;;;;;;;33.30;21.57;;;76.80;2227.20;;;;;;4812744;29;20029;-84
2021/12/07 00:26:06;;;;;;;33.93;21.23;;;77.50;2227.20;;;;;;4826373;29;20067;-84
2021/12/07 00:28:34;;;;;;;32.37;20.83;;;77.50;2227.20;;;;;;4826336;29;20083;-85
2021/12/07 00:31:25;;;;;;;33.53;21.77;;;77.50;2227.20;;;;;;4825692;29;20031;-83
2021/12/07 00:37:02;;;;;;;32.20;22.00;;;77.60;2227.20;;;;;;4828483;29;20038;-83
2021/12/07 00:39:31;;;;;;;33.23;21.57;;;77.60;2227.20;;;;;;4826981;29;20038;-86
2021/12/07 00:41:59;;;;;;;31.73;20.93;;;77.60;2227.20;;;;;;4825620;29;20046;-83
2021/12/07 00:44:26;;;;;;;33.63;21.07;;;77.60;2227.20;;;;;;4812326;29;20027;-83
2021/12/07 00:46:59;;;;;;;35.07;21.17;;;77.60;2227.20;;;;;;4824082;29;20027;-82
2021/12/07 00:49:25;;;;;;;32.03;20.47;;;102.40;2227.20;;;;;;4809822;29;20043;-87
2021/12/07 00:51:52;;;;;;;32.30;21.70;;;77.00;2227.20;;;;;;4825358;29;20018;-83
2021/12/07 00:54:24;;;;;;;31.20;21.20;;;77.60;2227.20;;;;;;4826021;29;20157;-83
2021/12/07 00:56:51;;;;;;;33.63;21.40;;;77.50;2227.20;;;;;;4816344;29;20031;-83
2021/12/07 00:59:37;;;;;;;34.23;21.80;;;77.50;2227.20;;;;;;4827850;29;20064;-84
2021/12/07 01:02:27;;;;;;;33.77;21.37;;;77.50;2227.20;;;;;;4809873;29;20035;-84
2021/12/07 01:05:28;;;;;;;32.67;21.27;;;77.50;2227.20;;;;;;4809421;29;20096;-86
2021/12/07 01:08:55;;;;;;;32.30;21.57;;;77.50;2227.20;;;;;;4813117;29;20039;-85
2021/12/07 02:02:15;;;;;;;38.90;22.90;;;77.50;2227.20;;;;;;5518382;24;20054;-86
2021/12/07 05:03:29;;;;;;;47.63;25.47;;;77.50;2227.20;;;;;;4793371;29;20034;-86
2021/12/07 05:10:19;;;;;;;67.97;33.13;;;77.30;2227.20;;;;;;5182504;24;20043;-86
2021/12/07 05:13:29;;;;;;;39.90;23.43;;;77.30;2227.20;;;;;;4745608;30;20060;-87
2021/12/07 05:16:46;;;;;;;34.73;21.10;;;77.40;2227.20;;;;;;4695609;30;20043;-86
2021/12/07 05:38:49;;;;;;;42.90;23.93;;;77.30;2227.20;;;;;;4828692;29;20095;-86
2021/12/07 05:41:56;;;;;;;43.93;24.53;;;;;;;;;;4827513;29;20151;-87
2021/12/07 05:48:14;;;;;;;39.40;22.60;;;;;;;;;;4829483;29;20054;-86
2021/12/07 05:50:59;;;;;;;32.50;21.20;;;;;;;;;;4777375;30;20024;-87
2021/12/07 05:57:11;;;;;;;61.97;31.07;;;;;;;;;;4792348;30;20132;-86
2021/12/07 05:59:59;;;;;;;72.47;33.60;;;;;;;;;;4741530;30;20021;-88
2021/12/07 06:05:30;;;;;;;49.33;28.33;;;;;;;;;;4705022;30;20090;-86
2021/12/07 06:08:18;;;;;;;55.70;30.93;;;;;;;;;;4701587;30;20130;-87
2021/12/07 06:11:06;;;;;;;46.03;25.43;;;;;;;;;;4689882;30;20086;-86
2021/12/07 06:14:07;;;;;;;44.00;26.23;;;;;;;;;;4675608;30;20046;-86
2021/12/07 07:44:12;;;;;;;49.80;27.67;;;77.10;2227.20;;;;;;5694933;24;20034;-85
2021/12/07 07:47:29;;;;;;;51.13;29.10;;;77.10;2227.20;;;;;;4793184;29;20046;-86
2021/12/07 07:51:17;;;;;;;63.17;27.73;;;77.10;2227.20;;;;;;4706795;30;20073;-86
2021/12/07 08:01:23;;;;;;;57.47;31.67;;;77.10;2227.20;;;;;;4689079;30;20042;-81
2021/12/07 08:09:34;;;;;;;63.63;33.60;;;77.00;2227.20;;;;;;4828868;24;20610;-85
2021/12/07 08:12:55;;;;;;;62.13;32.20;;;77.00;2227.20;;;;;;4755895;30;20032;-85
2021/12/07 09:22:06;;;;;;;65.87;39.80;;;77.30;2227.20;;;;;;5789571;24;20038;-85
2021/12/07 09:50:58;;;;;;;53.60;35.03;;;77.50;2227.20;;;;;;5643025;24;20078;-84
2021/12/07 10:03:40;;;;;;;66.67;39.63;;;77.60;2227.20;;;;;;4907799;24;20055;-83
2021/12/07 10:06:13;;;;;;;61.90;35.97;;;102.60;2227.20;;;;;;5490586;24;20138;-83
2021/12/07 10:09:06;;;;;;;69.25;39.45;;;128.00;2252.80;;;;;;4775636;29;20092;-84
2021/12/07 10:11:53;;;;;;;103.07;75.47;;;128.70;2252.80;;;;;;4766639;30;20032;-85
2021/12/07 10:14:45;;;;;;;61.43;35.23;;;153.60;2252.80;;;;;;4787434;30;20064;-85
2021/12/07 10:17:12;;;;;;;66.50;41.47;;;154.20;2252.80;;;;;;4792348;30;20043;-84
2021/12/07 10:19:45;;;;;;;50.07;30.83;;;179.30;2252.80;;;;;;4770241;30;20538;-84
2021/12/07 10:22:35;;;;;;;61.92;39.42;;;153.70;2252.80;;;;;;4791832;30;20035;-85
2021/12/07 10:25:27;;;;;;;54.53;31.97;;;128.60;2252.80;;;;;;4780800;30;20032;-85
2021/12/07 10:28:49;;;;;;;47.50;29.83;;;128.20;2252.80;;;;;;4909390;24;20048;-85
2021/12/07 10:32:01;;;;;;;52.20;32.60;;;128.10;2252.80;;;;;;4777655;30;20107;-83
2021/12/07 10:35:38;;;;;;;71.37;43.17;;;103.30;2227.20;;;;;;4761495;30;20114;-85
2021/12/07 10:38:24;;;;;;;68.87;38.33;;;103.20;2227.20;;;;;;5073186;24;20052;-83
2021/12/07 10:41:11;;;;;;;58.10;34.67;;;;;;;;;;4791879;30;20039;-85
2021/12/07 10:48:59;;;;;;;58.80;33.30;;;;;;;;;;4874331;24;20063;-85
2021/12/07 10:51:25;;;;;;;55.60;29.07;;;128.20;2252.80;;;;;;4753774;30;20047;-79
2021/12/07 10:53:54;;;;;;;51.47;31.10;;;128.10;2252.80;;;;;;4793997;24;20029;-85
2021/12/07 10:57:02;;;;;;;62.40;34.57;;;103.30;2227.20;;;;;;4793911;24;20067;-84
2021/12/07 10:59:33;;;;;;;48.93;29.07;;;103.30;2227.20;;;;;;4773749;30;20069;-85
2021/12/07 11:02:18;;;;;;;;;;;103.00;2227.20;;;;;;4756669;30;20044;-85
2021/12/07 11:08:27;;;;;;;49.17;29.03;;;;;;;;;;4954152;24;20083;-85
2021/12/07 11:10:57;;;;;;;44.43;29.30;;;;;;;;;;4785349;30;20032;-85
2021/12/07 11:13:56;;;;;;;50.03;29.80;;;;;;;;;;4747353;30;20036;-86
2021/12/07 11:16:50;;;;;;;55.53;30.97;;;128.10;2252.80;;;;;;4689874;30;20056;-85
2021/12/07 11:19:38;;;;;;;46.27;26.50;;;;;;;;;;4734894;30;20057;-85
2021/12/07 11:22:07;;;;;;;45.13;26.87;;;;;;;;;;4738548;30;20032;-86
2021/12/07 11:31:39;;;;;;;43.93;26.63;;;128.00;2252.80;;;;;;4775008;30;20113;-85
2021/12/07 11:34:54;;;;;;;48.03;28.90;;;103.20;2227.20;;;;;;4777001;30;20032;-85
2021/12/07 11:37:41;;;;;;;58.77;31.43;;;103.30;2227.20;;;;;;4787734;30;20039;-85
2021/12/07 11:40:35;;;;;;;50.70;29.80;;;128.00;2252.80;;;;;;4778768;30;20048;-85
2021/12/07 11:43:52;;;;;;;65.80;36.78;;;128.00;2252.80;;;;;;4793077;30;20027;-85
2021/12/07 11:46:33;;;;;;;47.90;27.20;;;128.00;2252.80;;;;;;4792505;30;20026;-85
2021/12/07 11:49:52;;;;;;;45.33;26.03;;;128.00;2252.80;;;;;;4795010;30;20119;-86
2021/12/07 11:56:19;;;;;;;43.60;26.40;;;128.00;2252.80;;;;;;4797837;24;20063;-85
2021/12/07 11:58:48;;;;;;;53.07;30.30;;;128.00;2252.80;;;;;;4774448;30;20047;-85
2021/12/07 12:01:21;;;;;;;43.70;26.73;;;103.30;2227.20;;;;;;4745897;29;20048;-85
2021/12/07 12:03:55;;;;;;;52.53;31.23;;;103.30;2227.20;;;;;;4741929;30;20037;-84
2021/12/07 12:06:51;;;;;;;49.75;28.95;;;103.30;2227.20;;;;;;4762209;30;20067;-84
2021/12/07 12:09:54;;;;;;;53.67;31.80;;;103.30;2227.20;;;;;;4774120;30;20024;-85
2021/12/07 12:12:57;;;;;;;52.60;29.30;;;103.20;2227.20;;;;;;4741755;30;20029;-85
2021/12/07 12:15:45;;;;;;;46.00;26.00;;;103.10;2227.20;;;;;;4756287;30;20105;-85
2021/12/07 12:18:49;;;;;;;46.43;28.13;;;103.10;2227.20;;;;;;4755255;30;20035;-84
2021/12/07 12:21:53;;;;;;;46.47;25.00;;;103.10;2227.20;;;;;;4727277;30;20048;-84
2021/12/07 12:24:50;;;;;;;49.42;28.90;;;103.10;2227.20;;;;;;4754165;30;20039;-83
2021/12/07 12:27:25;;;;;;;119.10;49.00;;;103.00;2227.20;;;;;;4752829;30;20033;-82
2021/12/07 12:30:42;;;;;;;67.93;33.13;;;103.00;2227.20;;;;;;4754502;30;20029;-84
2021/12/07 12:33:16;;;;;;;81.93;36.27;;;103.00;2227.20;;;;;;4755131;30;20037;-84
2021/12/07 12:36:12;;;;;;;176.30;62.13;;;102.70;2227.20;;;;;;4755511;30;20016;-84
2021/12/07 12:39:19;;;;;;;208.07;69.90;;;103.00;2227.20;;;;;;4754619;30;20039;-84
2021/12/07 12:42:32;;;;;;;65.60;32.57;;;103.00;2227.20;;;;;;4755273;30;20032;-83
2021/12/07 12:45:38;;;;;;;242.23;80.40;;;103.00;2227.20;;;;;;4711018;30;20056;-83
2021/12/07 12:48:13;;;;;;;277.83;87.00;;;103.10;2227.20;;;;;;4756517;30;20097;-83
2021/12/07 12:50:50;;;;;;;168.97;58.17;;;102.90;2227.20;;;;;;4756133;30;20104;-84
2021/12/07 12:53:32;;;;;;;348.60;108.50;;;103.00;2227.20;;;;;;4724399;30;20103;-83
2021/12/07 12:56:42;;;;;;;123.47;47.77;;;103.00;2227.20;;;;;;4754213;30;20041;-84
2021/12/07 12:59:38;;;;;;;232.83;72.33;;;103.00;2227.20;;;;;;4728257;30;20040;-85
2021/12/07 13:02:27;;;;;;;139.03;49.67;;;103.00;2227.20;;;;;;4743713;30;20024;-83
2021/12/07 13:05:36;;;;;;;248.57;80.00;;;103.00;2227.20;;;;;;4745042;30;20041;-84
2021/12/07 13:08:44;;;;;;;212.10;74.03;;;103.00;2227.20;;;;;;4773332;29;20074;-85
2021/12/07 13:15:23;;;;;;;91.40;39.53;;;103.10;2227.20;;;;;;4765220;29;20083;-84
2021/12/07 13:18:01;;;;;;;190.63;71.23;;;103.00;2227.20;;;;;;4752404;30;20067;-84
2021/12/07 13:20:36;;;;;;;71.03;35.40;;;102.90;2227.20;;;;;;4757971;30;20049;-82
2021/12/07 13:23:35;;;;;;;122.83;53.93;;;103.10;2227.20;;;;;;4757304;30;20048;-84
2021/12/07 13:26:11;;;;;;;107.13;49.40;;;103.10;2227.20;;;;;;4720999;30;20026;-84
2021/12/07 13:29:27;;;;;;;89.55;48.35;;;103.10;2227.20;;;;;;4701281;30;20037;-83
2021/12/07 13:32:02;;;;;;;53.13;31.37;;;103.10;2227.20;;;;;;4670563;30;20043;-84
2021/12/07 13:34:47;;;;;;;76.07;43.50;;;103.10;2227.20;;;;;;4654647;30;20031;-82
2021/12/07 13:37:52;;;;;;;56.07;32.10;;;103.10;2227.20;;;;;;4670631;30;20822;-84
2021/12/07 13:41:01;;;;;;;73.57;42.03;;;103.10;2227.20;;;;;;4642740;30;20055;-84
2021/12/07 13:44:21;;;;;;;67.53;41.30;;;103.10;2227.20;;;;;;4753080;24;20050;-84
2021/12/07 13:47:40;;;;;;;47.50;29.03;;;103.00;2227.20;;;;;;4791712;29;20051;-84
2021/12/07 13:50:50;;;;;;;36.50;24.70;;;102.90;2227.20;;;;;;4740960;30;20036;-86
2021/12/07 13:56:31;;;;;;;38.70;28.83;;;102.90;2227.20;;;;;;4908942;24;20066;31
2021/12/07 14:00:14;;;;;;;41.30;29.50;;;102.90;2227.20;;;;;;4798275;24;20076;-85
2021/12/07 14:02:49;;;;;;;36.17;19.50;;;102.90;2227.20;;;;;;4755954;30;20044;-85
2021/12/07 14:06:11;;;;;;;35.43;21.73;;;102.90;2227.20;;;;;;4756473;30;20020;-85
2021/12/07 14:08:51;;;;;;;41.50;25.33;;;102.90;2227.20;;;;;;4723576;30;20043;-85
2021/12/07 14:11:27;;;;;;;42.27;26.77;;;102.90;2227.20;;;;;;4734352;30;20053;-84
2021/12/07 14:14:57;;;;;;;40.10;23.43;;;102.90;2227.20;;;;;;4724240;30;20025;-83
2021/12/07 14:17:36;;;;;;;68.50;39.27;;;102.80;2227.20;;;;;;4721703;30;20041;-85
2021/12/07 14:20:03;;;;;;;51.20;31.53;;;102.80;2227.20;;;;;;4723662;30;20041;-84
2021/12/07 14:23:01;;;;;;;39.97;24.53;;;103.10;2227.20;;;;;;4736464;30;20041;-84
2021/12/07 14:25:54;;;;;;;34.27;20.30;;;102.80;2227.20;;;;;;4723483;30;20025;-84
2021/12/07 14:28:57;;;;;;;31.23;19.57;;;102.80;2227.20;;;;;;4722677;30;20037;-84
2021/12/07 14:31:47;;;;;;;31.83;18.83;;;102.80;2227.20;;;;;;4737026;30;20262;-83
2021/12/07 14:34:33;;;;;;;30.13;18.43;;;102.70;2227.20;;;;;;4737902;30;20021;-84
2021/12/07 14:37:44;;;;;;;77.03;44.93;;;102.70;2227.20;;;;;;4723212;30;20024;-86
2021/12/07 14:40:40;;;;;;;52.58;32.20;;;102.70;2227.20;;;;;;4754926;30;20029;-87
2021/12/07 14:43:55;;;;;;;83.60;54.20;;;102.70;2227.20;;;;;;4755469;30;20036;-85
2021/12/07 14:46:48;;;;;;;37.10;23.17;;;102.70;2227.20;;;;;;4743512;30;20040;-85
2021/12/07 14:52:44;;;;;;;38.57;25.03;;;102.60;2227.20;;;;;;4757209;30;20048;-86
2021/12/07 14:55:11;;;;;;;42.23;26.50;;;102.60;2227.20;;;;;;4742258;30;20143;-83
2021/12/07 14:57:50;;;;;;;57.87;30.97;;;77.40;2227.20;;;;;;4719930;30;20129;-84
2021/12/07 15:00:19;;;;;;;53.90;32.07;;;102.60;2227.20;;;;;;4722968;30;20544;-83
2021/12/07 15:02:48;;;;;;;59.03;36.80;;;102.50;2227.20;;;;;;4721708;30;20049;-84
2021/12/07 15:05:26;;;;;;;50.63;30.03;;;102.60;2227.20;;;;;;4706051;30;20046;-84
2021/12/07 15:07:57;;;;;;;31.63;19.87;;;102.60;2227.20;;;;;;4676781;30;20053;-83
2021/12/07 15:10:49;;;;;;;36.70;24.17;;;102.50;2227.20;;;;;;4706222;30;20030;-84
2021/12/07 15:13:22;;;;;;;33.10;20.67;;;102.70;2227.20;;;;;;4742900;30;20048;-84
2021/12/07 15:16:27;;;;;;;34.55;23.20;;;102.50;2227.20;;;;;;4757613;30;20028;-82
2021/12/07 15:18:57;;;;;;;;;;;102.50;2227.20;;;;;;4792362;30;20103;-84
2021/12/07 15:21:37;;;;;;;37.10;21.67;;;102.50;2227.20;;;;;;4775162;30;20695;-84
2021/12/07 15:24:39;;;;;;;36.63;21.20;;;102.40;2227.20;;;;;;4763289;30;20040;-84
2021/12/07 15:27:08;;;;;;;31.50;17.33;;;102.50;2227.20;;;;;;4802808;29;20087;-84
2021/12/07 15:29:40;;;;;;;31.93;18.03;;;102.50;2227.20;;;;;;4749838;30;20044;-83
2021/12/07 15:32:12;;;;;;;34.23;18.90;;;102.40;2227.20;;;;;;4749627;30;20108;-83
2021/12/07 15:34:48;;;;;;;30.80;18.57;;;102.40;2227.20;;;;;;4793672;30;20129;-84
2021/12/07 15:37:24;;;;;;;31.93;19.73;;;102.40;2227.20;;;;;;4791892;30;20110;-78
2021/12/07 15:40:04;;;;;;;34.77;19.20;;;102.40;2227.20;;;;;;4776587;30;20036;-83
2021/12/07 15:45:27;;;;;;;32.25;18.90;;;77.70;2227.20;;;;;;4794308;30;20070;-84
2021/12/07 15:47:54;;;;;;;34.80;20.90;;;77.70;2227.20;;;;;;4758744;30;20031;-83
2021/12/07 15:50:29;;;;;;;42.53;24.93;;;77.70;2227.20;;;;;;4777921;30;20056;-84
2021/12/07 15:53:15;;;;;;;63.77;32.50;;;77.70;2227.20;;;;;;4790597;30;20108;-84
2021/12/07 15:56:26;;;;;;;59.27;32.93;;;77.50;2227.20;;;;;;4780278;30;20040;-82
2021/12/07 15:59:29;;;;;;;54.97;29.10;;;77.60;2227.20;;;;;;4792690;30;20549;-84
2021/12/07 16:02:22;;;;;;;44.93;25.83;;;77.60;2227.20;;;;;;4793720;30;20040;-84
2021/12/07 16:05:07;;;;;;;45.20;26.70;;;77.70;2227.20;;;;;;4784813;30;20044;-83
2021/12/07 16:07:55;;;;;;;54.13;30.10;;;77.60;2227.20;;;;;;4762398;30;20059;-84
2021/12/07 16:10:49;;;;;;;60.03;32.10;;;77.70;2227.20;;;;;;4792005;30;20023;-82
2021/12/07 16:13:26;;;;;;;45.87;25.07;;;77.60;2227.20;;;;;;4778674;30;20048;-83
2021/12/07 16:16:16;;;;;;;54.03;29.23;;;77.50;2227.20;;;;;;4763465;30;20032;-83
2021/12/07 16:18:46;;;;;;;49.13;27.23;;;77.50;2227.20;;;;;;4789401;30;20107;-83
2021/12/07 16:21:17;;;;;;;55.30;28.07;;;77.50;2227.20;;;;;;4775473;30;20043;-83
2021/12/07 16:24:23;;;;;;;57.50;27.23;;;77.50;2227.20;;;;;;4790527;30;20030;-84
2021/12/07 16:27:11;;;;;;;61.73;30.10;;;77.50;2227.20;;;;;;4777590;30;20031;-84
2021/12/07 16:29:56;;;;;;;68.83;37.87;;;77.60;2227.20;;;;;;4746437;30;20044;-83
2021/12/07 16:32:44;;;;;;;70.43;38.10;;;77.60;2227.20;;;;;;4788898;30;20043;-84
2021/12/07 16:35:13;;;;;;;41.33;23.63;;;103.00;2227.20;;;;;;4769919;30;20055;-85
2021/12/07 16:38:14;;;;;;;53.70;29.27;;;77.60;2227.20;;;;;;4775755;30;20077;-85
2021/12/07 16:41:29;;;;;;;214.37;103.27;;;77.60;2227.20;;;;;;4774536;30;20092;-84
2021/12/07 16:44:00;;;;;;;60.73;34.10;;;77.60;2227.20;;;;;;4760469;30;20032;-85
2021/12/07 16:52:20;;;;;;;32.90;20.73;;;77.60;2227.20;;;;;;5120132;24;20059;-84
2021/12/07 16:54:55;;;;;;;32.63;20.23;;;77.60;2227.20;;;;;;4792734;29;20132;-84
2021/12/07 16:57:44;;;;;;;82.67;39.43;;;77.60;2227.20;;;;;;4756143;30;20036;-82
2021/12/07 17:00:34;;;;;;;71.67;34.43;;;77.60;2227.20;;;;;;4791562;30;20044;-83
2021/12/07 17:06:08;;;;;;;51.43;26.83;;;77.50;2227.20;;;;;;4785006;29;20532;-78
2021/12/07 17:15:10;;;;;;;44.37;24.17;;;77.50;2227.20;;;;;;4879239;24;20054;-86
2021/12/07 17:17:39;;;;;;;43.70;24.77;;;77.40;2227.20;;;;;;4793395;29;20055;-84
2021/12/07 17:23:44;;;;;;;53.43;30.57;;;77.50;2227.20;;;;;;4793037;30;20031;-85
2021/12/07 17:27:40;;;;;;;39.27;22.80;;;77.60;2227.20;;;;;;4791887;30;20031;-85
2021/12/07 17:30:36;;;;;;;33.27;20.17;;;77.60;2227.20;;;;;;4757104;30;20048;-85
2021/12/07 17:33:04;;;;;;;38.13;20.73;;;77.60;2227.20;;;;;;4745108;30;20036;-78
2021/12/07 17:35:32;;;;;;;41.00;21.97;;;77.50;2227.20;;;;;;4724639;30;20060;-77
2021/12/07 17:37:59;;;;;;;39.13;21.90;;;77.50;2227.20;;;;;;4728742;30;20460;-78
2021/12/07 17:40:39;;;;;;;40.27;23.77;;;77.50;2227.20;;;;;;4730337;30;20068;-84
2021/12/07 17:43:20;;;;;;;37.87;21.20;;;77.30;2227.20;;;;;;4771430;30;20040;-83
2021/12/07 17:45:53;;;;;;;;;;;77.40;2227.20;;;;;;4773849;30;20040;-83
2021/12/07 17:48:39;;;;;;;49.23;26.63;;;77.50;2227.20;;;;;;4772303;30;19910;-83
2021/12/07 17:51:08;;;;;;;38.27;22.87;;;77.40;2227.20;;;;;;4773042;30;20047;-83
2021/12/07 17:53:35;;;;;;;40.57;22.13;;;77.50;2227.20;;;;;;4757898;30;20061;-82
2021/12/07 17:56:33;;;;;;;38.00;22.10;;;77.50;2227.20;;;;;;4773534;30;20110;-84
2021/12/07 18:00:04;;;;;;;46.00;25.23;;;77.40;2227.20;;;;;;4755655;30;20036;-84
2021/12/07 18:02:55;;;;;;;37.00;20.17;;;77.40;2227.20;;;;;;4755399;30;20083;-83
2021/12/07 18:20:27;;;;;;;39.87;23.13;;;76.80;2227.20;;;;;;4791846;30;20105;-83
2021/12/07 18:23:34;;;;;;;41.30;23.60;;;76.80;2227.20;;;;;;4793466;30;20031;-83
2021/12/07 18:29:45;;;;;;;39.67;22.30;;;52.10;2227.20;;;;;;4812787;29;20043;-83
2021/12/07 18:32:29;;;;;;;41.80;24.45;;;52.00;2227.20;;;;;;4796369;30;20016;-82
2021/12/07 18:35:23;;;;;;;45.40;26.00;;;52.00;2227.20;;;;;;4798941;29;20043;-83
2021/12/07 18:41:16;;;;;;;44.03;24.73;;;52.10;2227.20;;;;;;5753226;24;20795;-85
2021/12/07 18:44:24;;;;;;;46.90;25.87;;;76.80;2227.20;;;;;;5449824;24;20039;-84
2021/12/07 18:46:57;;;;;;;43.90;24.10;;;76.80;2227.20;;;;;;4779708;29;20049;-83
2021/12/07 18:49:41;;;;;;;42.25;24.05;;;76.80;2227.20;;;;;;4796468;29;20022;-83
2021/12/07 18:53:29;;;;;;;42.53;25.20;;;76.80;2227.20;;;;;;4797003;29;20016;-81
2021/12/07 19:07:29;;;;;;;35.77;22.00;;;52.10;2227.20;;;;;;4947358;24;20006;-82
2021/12/07 19:10:27;;;;;;;37.00;21.53;;;51.90;2227.20;;;;;;4885466;24;20052;-83
2021/12/07 19:39:27;;;;;;;37.80;21.63;;;51.60;2227.20;;;;;;5235233;24;20056;-86
2021/12/07 19:55:28;;;;;;;55.23;34.37;;;51.70;2227.20;;;;;;5244528;24;20064;-85
2021/12/07 20:13:39;;;;;;;53.07;30.90;;;51.50;2227.20;;;;;;5205525;24;20060;-83
2021/12/07 20:16:42;;;;;;;51.43;28.77;;;51.50;2227.20;;;;;;4790175;29;20043;-82
2021/12/07 20:19:11;;;;;;;55.53;28.45;;;51.50;2227.20;;;;;;4791386;29;20411;-83
2021/12/07 20:21:59;;;;;;;48.53;27.57;;;51.50;2227.20;;;;;;4764634;30;20020;-82
2021/12/07 20:24:30;;;;;;;42.67;25.17;;;51.50;2227.20;;;;;;4777292;30;20055;-84
2021/12/07 20:27:36;;;;;;;43.03;24.33;;;51.80;2227.20;;;;;;4776876;29;20046;-83
2021/12/07 20:31:00;;;;;;;42.30;25.60;;;51.40;2227.20;;;;;;4728310;30;20025;-82
2021/12/07 20:33:38;;;;;;;42.57;22.70;;;51.50;2227.20;;;;;;4725009;30;20041;-81
2021/12/07 20:36:09;;;;;;;44.30;23.03;;;51.50;2227.20;;;;;;4723548;30;20033;-82
2021/12/07 20:38:48;;;;;;;40.63;21.30;;;51.50;2227.20;;;;;;4737886;30;20025;-83
2021/12/07 20:44:33;;;;;;;40.07;22.40;;;51.40;2227.20;;;;;;5106377;24;20066;-84
2021/12/07 20:48:17;;;;;;;33.80;20.80;;;51.40;2227.20;;;;;;4788654;29;20109;-83
2021/12/07 20:51:33;;;;;;;40.90;22.30;;;51.50;2227.20;;;;;;4687127;30;20029;-81
2021/12/07 21:00:47;;;;;;;36.67;21.40;;;51.30;2227.20;;;;;;4758637;30;20058;-78
2021/12/07 21:03:26;;;;;;;37.70;21.23;;;51.30;2227.20;;;;;;4775383;30;20064;-77
2021/12/07 21:06:15;;;;;;;38.13;22.37;;;51.30;2227.20;;;;;;4772752;30;20669;-78
2021/12/07 21:08:50;;;;;;;39.10;22.67;;;51.50;2227.20;;;;;;4775467;30;20123;-78
2021/12/07 21:12:00;;;;;;;34.63;20.47;;;51.40;2227.20;;;;;;4759690;30;20101;-82
2021/12/07 21:14:34;;;;;;;39.13;21.50;;;51.30;2227.20;;;;;;4764233;24;20036;-79
2021/12/07 21:17:00;;;;;;;38.08;22.77;;;51.30;2227.20;;;;;;4790372;29;20104;-78
2021/12/07 21:19:27;;;;;;;41.83;23.63;;;51.30;2227.20;;;;;;4775155;29;20085;-76
2021/12/07 21:27:32;;;;;;;42.07;23.97;;;51.20;2227.20;;;;;;5507852;24;20070;-83
2021/12/07 21:53:09;;;;;;;59.17;32.70;;;26.40;2201.60;;;;;;5543362;24;20067;-84
2021/12/07 23:36:08;;;;;;;51.10;27.43;;;0.90;2201.60;;;;;;5846360;24;20072;31
2021/12/07 23:42:17;;;;;;;49.47;27.47;;;0.70;2201.60;;;;;;5036440;24;20031;-83
2021/12/07 23:45:22;;;;;;;50.65;28.13;;;0.80;2201.60;;;;;;4813172;29;20051;-84
2021/12/07 23:48:25;;;;;;;47.43;27.00;;;0.80;2201.60;;;;;;4813295;29;20039;-84
2021/12/07 23:51:23;;;;;;;48.40;27.77;;;0.70;2201.60;;;;;;4812885;29;20023;-84
2021/12/07 23:54:42;;;;;;;49.17;27.50;;;0.80;2201.60;;;;;;4812585;29;20181;-84
